createdAt,value
2018-09-10T00:00:09.669Z,18.25
2018-09-10T00:02:38.070Z,18.29
2018-09-10T00:05:06.430Z,18.27
2018-09-10T00:07:34.786Z,18.31
2018-09-10T00:10:03.845Z,18.25
2018-09-10T00:12:32.145Z,18.29
2018-09-10T00:15:00.441Z,18.30
2018-09-10T00:17:28.705Z,18.45
2018-09-10T00:19:57.023Z,18.47
2018-09-10T00:22:25.341Z,18.55
2018-09-10T00:24:53.635Z,18.48
2018-09-10T00:27:21.921Z,18.45
2018-09-10T00:29:50.569Z,18.50
2018-09-10T00:32:18.846Z,18.56
2018-09-10T00:34:47.145Z,18.48
2018-09-10T00:37:15.423Z,18.51
2018-09-10T00:39:43.802Z,18.55
2018-09-10T00:42:12.121Z,18.49
2018-09-10T00:44:40.451Z,18.60
2018-09-10T00:47:08.737Z,18.55
2018-09-10T00:49:37.030Z,18.67
2018-09-10T00:52:05.337Z,18.65
2018-09-10T00:54:33.654Z,18.69
2018-09-10T00:57:01.992Z,18.77
2018-09-10T00:59:30.290Z,18.71
2018-09-10T01:01:58.637Z,18.72
2018-09-10T01:04:26.938Z,18.74
2018-09-10T01:06:55.277Z,18.76
2018-09-10T01:09:23.566Z,18.75
2018-09-10T01:11:51.865Z,18.79
2018-09-10T01:14:20.178Z,18.86
2018-09-10T01:16:48.464Z,18.80
2018-09-10T01:19:16.818Z,18.74
2018-09-10T01:21:45.119Z,18.71
2018-09-10T01:24:13.481Z,18.73
2018-09-10T01:26:41.777Z,18.74
2018-09-10T01:29:10.145Z,18.80
2018-09-10T01:31:38.442Z,18.74
2018-09-10T01:34:12.063Z,18.73
2018-09-10T01:36:40.517Z,18.72
2018-09-10T01:39:09.628Z,18.64
2018-09-10T01:41:37.913Z,18.75
2018-09-10T01:44:06.274Z,18.74
2018-09-10T01:46:34.550Z,18.73
2018-09-10T01:49:02.842Z,18.79
2018-09-10T01:51:31.330Z,18.73
2018-09-10T01:53:59.935Z,18.65
2018-09-10T01:56:28.481Z,18.68
2018-09-10T01:58:56.795Z,18.69
2018-09-10T02:01:25.076Z,18.62
2018-09-10T02:03:53.548Z,18.68
2018-09-10T02:06:21.877Z,18.75
2018-09-10T02:09:53.589Z,18.75
2018-09-10T02:12:25.932Z,18.65
2018-09-10T02:14:55.661Z,18.63
2018-09-10T02:17:24.439Z,18.51
2018-09-10T02:19:52.786Z,18.52
2018-09-10T02:22:21.592Z,18.60
2018-09-10T02:24:49.898Z,18.54
2018-09-10T02:27:18.280Z,18.49
2018-09-10T02:29:46.566Z,18.47
2018-09-10T02:32:14.841Z,18.46
2018-09-10T02:34:43.175Z,18.57
2018-09-10T02:37:11.457Z,18.51
2018-09-10T02:39:39.823Z,18.48
2018-09-10T02:42:08.100Z,18.35
2018-09-10T02:44:36.402Z,18.48
2018-09-10T02:47:04.680Z,18.57
2018-09-10T02:49:33.018Z,18.52
2018-09-10T02:52:01.293Z,18.48
2018-09-10T02:54:29.577Z,18.55
2018-09-10T02:56:57.880Z,18.47
2018-09-10T02:59:26.148Z,18.52
2018-09-10T03:01:54.542Z,18.52
2018-09-10T03:04:22.848Z,18.45
2018-09-10T03:06:51.779Z,18.43
2018-09-10T03:09:20.086Z,18.41
2018-09-10T03:11:48.426Z,18.33
2018-09-10T03:14:16.965Z,18.32
2018-09-10T03:16:45.257Z,18.15
2018-09-10T03:19:13.650Z,18.26
2018-09-10T03:21:41.949Z,18.24
2018-09-10T03:24:10.274Z,18.38
2018-09-10T03:26:38.612Z,18.37
2018-09-10T03:29:06.878Z,18.35
2018-09-10T03:31:35.183Z,18.39
2018-09-10T03:34:04.457Z,18.29
2018-09-10T03:36:32.777Z,18.31
2018-09-10T03:39:01.049Z,18.33
2018-09-10T03:41:29.345Z,18.25
2018-09-10T03:43:57.625Z,18.14
2018-09-10T03:46:26.133Z,18.25
2018-09-10T03:48:54.399Z,18.33
2018-09-10T03:51:22.661Z,18.31
2018-09-10T03:53:50.965Z,18.07
2018-09-10T03:56:19.321Z,18.18
2018-09-10T03:58:47.621Z,18.30
2018-09-10T04:01:15.888Z,18.24
2018-09-10T04:03:44.213Z,18.24
2018-09-10T04:06:12.544Z,18.24
2018-09-10T04:08:40.879Z,18.38
2018-09-10T04:11:09.360Z,18.31
2018-09-10T04:13:37.674Z,18.36
2018-09-10T04:16:05.957Z,18.41
2018-09-10T04:18:34.374Z,18.23
2018-09-10T04:21:02.673Z,18.26
2018-09-10T04:23:30.966Z,18.44
2018-09-10T04:25:59.273Z,18.29
2018-09-10T04:28:27.561Z,18.13
2018-09-10T04:30:55.897Z,18.11
2018-09-10T04:33:24.289Z,17.90
2018-09-10T04:35:52.648Z,18.15
2018-09-10T04:38:21.013Z,18.11
2018-09-10T04:40:49.310Z,17.96
2018-09-10T04:43:17.825Z,17.99
2018-09-10T04:45:46.144Z,17.96
2018-09-10T04:48:14.446Z,17.90
2018-09-10T04:50:43.715Z,17.83
2018-09-10T04:53:12.085Z,17.75
2018-09-10T04:55:40.645Z,17.70
2018-09-10T04:58:08.982Z,17.59
2018-09-10T05:00:37.256Z,17.65
2018-09-10T05:03:05.566Z,17.53
2018-09-10T05:05:33.893Z,17.49
2018-09-10T05:08:02.185Z,17.61
2018-09-10T05:10:30.493Z,17.59
2018-09-10T05:12:58.771Z,17.57
2018-09-10T05:15:27.246Z,17.53
2018-09-10T05:17:55.525Z,17.60
2018-09-10T05:20:23.901Z,17.72
2018-09-10T05:22:52.189Z,17.70
2018-09-10T05:25:20.510Z,17.62
2018-09-10T05:27:48.773Z,17.73
2018-09-10T05:30:17.101Z,17.71
2018-09-10T05:32:45.409Z,17.72
2018-09-10T05:35:14.729Z,17.85
2018-09-10T05:37:43.041Z,17.76
2018-09-10T05:40:11.757Z,17.84
2018-09-10T05:42:40.280Z,17.76
2018-09-10T05:45:10.712Z,17.87
2018-09-10T05:47:39.526Z,17.72
2018-09-10T05:50:08.133Z,17.97
2018-09-10T05:52:36.454Z,18.04
2018-09-10T05:55:04.870Z,18.01
2018-09-10T05:57:33.409Z,18.07
2018-09-10T06:00:01.696Z,17.94
2018-09-10T06:02:31.001Z,18.11
2018-09-10T06:04:59.295Z,18.02
2018-09-10T06:07:27.725Z,18.01
2018-09-10T06:09:56.072Z,18.13
2018-09-10T06:12:24.373Z,17.96
2018-09-10T06:14:52.925Z,18.14
2018-09-10T06:17:21.262Z,18.00
2018-09-10T06:19:49.574Z,17.85
2018-09-10T06:22:17.915Z,17.81
2018-09-10T06:24:46.195Z,17.87
2018-09-10T06:27:14.488Z,18.01
2018-09-10T06:29:43.859Z,18.04
2018-09-10T06:32:12.157Z,18.09
2018-09-10T06:34:40.431Z,18.20
2018-09-10T06:37:09.871Z,18.17
2018-09-10T06:39:38.162Z,18.02
2018-09-10T06:42:06.515Z,17.96
2018-09-10T06:44:34.782Z,17.95
2018-09-10T06:47:03.052Z,17.99
2018-09-10T06:49:31.465Z,18.00
2018-09-10T06:51:59.737Z,18.05
2018-09-10T06:54:28.245Z,18.04
2018-09-10T06:56:56.539Z,18.13
2018-09-10T06:59:24.971Z,18.24
2018-09-10T07:01:53.237Z,18.38
2018-09-10T07:04:21.560Z,18.34
2018-09-10T07:06:49.837Z,18.49
2018-09-10T07:09:18.478Z,18.43
2018-09-10T07:11:46.804Z,18.43
2018-09-10T07:14:15.084Z,18.60
2018-09-10T07:16:44.442Z,18.58
2018-09-10T07:19:12.733Z,18.68
2018-09-10T07:21:41.035Z,18.75
2018-09-10T07:24:09.353Z,18.79
2018-09-10T07:26:37.647Z,18.64
2018-09-10T07:29:05.999Z,18.51
2018-09-10T07:31:34.290Z,18.58
2018-09-10T07:34:02.626Z,18.47
2018-09-10T07:36:30.934Z,18.61
2018-09-10T07:38:59.280Z,18.43
2018-09-10T07:41:27.574Z,18.39
2018-09-10T07:43:55.942Z,18.57
2018-09-10T07:46:24.178Z,18.87
2018-09-10T07:48:52.616Z,19.17
2018-09-10T07:51:20.885Z,19.12
2018-09-10T07:53:49.185Z,18.86
2018-09-10T07:56:17.525Z,19.34
2018-09-10T07:58:45.809Z,19.60
2018-09-10T08:01:14.118Z,19.79
2018-09-10T08:03:42.425Z,20.23
2018-09-10T08:06:10.738Z,20.25
2018-09-10T08:08:39.046Z,20.31
2018-09-10T08:11:07.385Z,20.00
2018-09-10T08:13:35.706Z,20.69
2018-09-10T08:16:04.014Z,21.14
2018-09-10T08:18:32.431Z,21.12
2018-09-10T08:21:00.733Z,21.14
2018-09-10T08:23:28.992Z,21.39
2018-09-10T08:25:57.313Z,21.50
2018-09-10T08:28:25.647Z,21.61
2018-09-10T08:30:53.941Z,21.51
2018-09-10T08:33:22.229Z,21.61
2018-09-10T08:35:50.525Z,21.84
2018-09-10T08:38:19.020Z,22.08
2018-09-10T08:40:47.298Z,22.38
2018-09-10T08:43:15.598Z,22.41
2018-09-10T08:45:43.949Z,22.42
2018-09-10T08:48:12.260Z,22.56
2018-09-10T08:50:40.681Z,23.40
2018-09-10T08:53:09.161Z,23.55
2018-09-10T08:55:37.581Z,23.66
2018-09-10T08:58:05.846Z,22.67
2018-09-10T09:00:34.218Z,22.31
2018-09-10T09:03:02.461Z,22.13
2018-09-10T09:05:30.789Z,22.04
2018-09-10T09:07:59.122Z,22.60
2018-09-10T09:10:27.353Z,22.77
2018-09-10T09:12:55.633Z,22.51
2018-09-10T09:15:23.979Z,22.20
2018-09-10T09:17:52.269Z,21.67
2018-09-10T09:20:20.633Z,21.45
2018-09-10T09:22:49.199Z,21.15
2018-09-10T09:25:17.836Z,21.13
2018-09-10T09:27:46.298Z,21.48
2018-09-10T09:30:14.624Z,21.40
2018-09-10T09:32:42.867Z,21.42
2018-09-10T09:35:11.170Z,21.58
2018-09-10T09:37:44.602Z,22.02
2018-09-10T09:40:18.261Z,22.05
2018-09-10T09:42:51.710Z,22.26
2018-09-10T09:45:25.270Z,22.68
2018-09-10T09:47:53.629Z,23.42
2018-09-10T09:50:21.949Z,23.60
2018-09-10T09:52:50.400Z,23.51
2018-09-10T09:55:18.727Z,23.42
2018-09-10T09:57:47.132Z,23.10
2018-09-10T10:00:15.437Z,22.42
2018-09-10T10:02:49.097Z,22.68
2018-09-10T10:05:17.439Z,22.50
2018-09-10T10:07:45.758Z,21.95
2018-09-10T10:10:14.080Z,21.77
2018-09-10T10:12:42.449Z,21.84
2018-09-10T10:15:10.721Z,22.25
2018-09-10T10:17:39.106Z,22.03
2018-09-10T10:20:07.400Z,21.46
2018-09-10T10:22:35.685Z,21.86
2018-09-10T10:25:03.962Z,22.10
2018-09-10T10:27:32.268Z,22.66
2018-09-10T10:30:01.054Z,22.86
2018-09-10T10:32:29.341Z,23.07
2018-09-10T10:34:57.620Z,22.88
2018-09-10T10:37:25.960Z,22.90
2018-09-10T10:39:54.245Z,22.69
2018-09-10T10:42:22.568Z,22.66
2018-09-10T10:44:50.846Z,22.82
2018-09-10T10:47:20.204Z,23.13
2018-09-10T10:49:48.478Z,23.57
2018-09-10T10:52:16.874Z,23.38
2018-09-10T10:54:45.154Z,23.00
2018-09-10T10:57:13.479Z,22.48
2018-09-10T10:59:41.738Z,22.77
2018-09-10T11:02:10.104Z,22.76
2018-09-10T11:04:38.523Z,22.06
2018-09-10T11:07:07.236Z,22.15
2018-09-10T11:09:35.554Z,21.89
2018-09-10T11:12:04.856Z,21.97
2018-09-10T11:14:33.169Z,21.74
2018-09-10T11:17:02.433Z,21.70
2018-09-10T11:19:30.842Z,21.45
2018-09-10T11:21:59.107Z,21.74
2018-09-10T11:24:27.409Z,21.85
2018-09-10T11:26:55.695Z,22.05
2018-09-10T11:29:23.997Z,21.71
2018-09-10T11:31:52.275Z,22.10
2018-09-10T11:34:20.674Z,21.90
2018-09-10T11:36:49.077Z,21.94
2018-09-10T11:39:17.383Z,22.47
2018-09-10T11:41:45.663Z,22.47
2018-09-10T11:44:13.971Z,22.58
2018-09-10T11:46:42.338Z,22.89
2018-09-10T11:49:10.577Z,22.65
2018-09-10T11:51:38.911Z,22.80
2018-09-10T11:54:07.182Z,22.63
2018-09-10T11:56:35.781Z,22.47
2018-09-10T11:59:04.060Z,22.29
2018-09-10T12:01:32.377Z,22.51
2018-09-10T12:04:00.685Z,22.59
2018-09-10T12:06:29.088Z,22.25
2018-09-10T12:08:57.369Z,22.26
2018-09-10T12:11:25.717Z,22.13
2018-09-10T12:13:53.921Z,22.51
2018-09-10T12:16:22.201Z,22.61
2018-09-10T12:18:50.460Z,22.87
2018-09-10T12:21:18.849Z,22.49
2018-09-10T12:23:47.169Z,22.62
2018-09-10T12:26:15.615Z,22.51
2018-09-10T12:28:43.898Z,22.72
2018-09-10T12:31:12.381Z,23.07
2018-09-10T12:33:40.665Z,22.45
2018-09-10T12:36:10.279Z,22.63
2018-09-10T12:38:38.573Z,22.06
2018-09-10T12:41:08.210Z,22.34
2018-09-10T12:43:36.529Z,22.57
2018-09-10T12:46:04.835Z,22.61
2018-09-10T12:48:33.149Z,22.86
2018-09-10T12:51:17.733Z,22.78
2018-09-10T12:53:46.029Z,22.68
2018-09-10T12:56:14.297Z,22.32
2018-09-10T12:58:42.649Z,23.03
2018-09-10T13:01:10.938Z,22.85
2018-09-10T13:03:39.406Z,22.34
2018-09-10T13:06:07.681Z,21.83
2018-09-10T13:08:35.986Z,21.78
2018-09-10T13:11:04.294Z,21.84
2018-09-10T13:13:32.597Z,22.21
2018-09-10T13:16:00.870Z,22.08
2018-09-10T13:18:30.471Z,21.76
2018-09-10T13:20:58.750Z,21.58
2018-09-10T13:23:27.056Z,21.74
2018-09-10T13:25:55.327Z,21.93
2018-09-10T13:28:23.825Z,21.87
2018-09-10T13:30:52.117Z,21.67
2018-09-10T13:33:20.431Z,21.42
2018-09-10T13:35:48.714Z,21.40
2018-09-10T13:38:16.966Z,21.25
2018-09-10T13:40:45.268Z,21.35
2018-09-10T13:43:13.632Z,21.09
2018-09-10T13:45:42.101Z,21.37
2018-09-10T13:48:10.717Z,21.82
2018-09-10T13:50:39.020Z,21.57
2018-09-10T13:53:07.577Z,20.94
2018-09-10T13:55:35.937Z,21.27
2018-09-10T13:58:04.233Z,21.07
2018-09-10T14:00:32.635Z,20.84
2018-09-10T14:03:00.893Z,20.94
2018-09-10T14:05:29.225Z,21.01
2018-09-10T14:07:57.506Z,20.89
2018-09-10T14:10:25.825Z,20.77
2018-09-10T14:12:54.121Z,20.62
2018-09-10T14:15:22.433Z,20.76
2018-09-10T14:17:50.697Z,20.71
2018-09-10T14:20:20.060Z,20.80
2018-09-10T14:22:48.365Z,21.01
2018-09-10T14:25:16.713Z,20.78
2018-09-10T14:27:44.985Z,20.88
2018-09-10T14:30:13.309Z,20.77
2018-09-10T14:32:41.643Z,20.63
2018-09-10T14:35:09.985Z,20.50
2018-09-10T14:37:38.289Z,20.62
2018-09-10T14:40:06.735Z,20.61
2018-09-10T14:42:35.046Z,20.47
2018-09-10T14:45:03.336Z,20.62
2018-09-10T14:47:31.634Z,20.46
2018-09-10T14:49:59.928Z,20.20
2018-09-10T14:52:28.345Z,20.59
2018-09-10T14:54:56.609Z,20.25
2018-09-10T14:57:25.001Z,20.00
2018-09-10T14:59:53.340Z,19.94
2018-09-10T15:02:22.728Z,20.01
2018-09-10T15:04:51.129Z,20.08
2018-09-10T15:07:19.452Z,19.98
2018-09-10T15:09:47.740Z,20.02
2018-09-10T15:12:16.125Z,19.68
2018-09-10T15:14:44.962Z,19.84
2018-09-10T15:17:13.276Z,19.95
2018-09-10T15:19:41.565Z,19.97
2018-09-10T15:22:09.841Z,19.88
2018-09-10T15:24:38.177Z,19.90
2018-09-10T15:27:06.478Z,19.88
2018-09-10T15:29:35.861Z,19.75
2018-09-10T15:32:04.153Z,19.86
2018-09-10T15:34:33.259Z,19.72
2018-09-10T15:37:01.584Z,19.79
2018-09-10T15:39:29.889Z,19.65
2018-09-10T15:41:58.165Z,19.45
2018-09-10T15:44:26.501Z,19.50
2018-09-10T15:46:54.901Z,19.56
2018-09-10T15:49:23.206Z,19.44
2018-09-10T15:51:52.005Z,19.41
2018-09-10T15:54:20.301Z,19.38
2018-09-10T15:56:48.610Z,19.39
2018-09-10T15:59:17.981Z,19.42
2018-09-10T16:01:46.290Z,19.29
2018-09-10T16:04:14.615Z,19.24
2018-09-10T16:06:43.926Z,19.13
2018-09-10T16:09:12.232Z,18.93
2018-09-10T16:11:40.502Z,18.90
2018-09-10T16:14:08.816Z,18.86
2018-09-10T16:16:37.122Z,18.93
2018-09-10T16:19:05.431Z,18.86
2018-09-10T16:21:33.783Z,18.99
2018-09-10T16:24:02.049Z,18.82
2018-09-10T16:26:31.445Z,18.80
2018-09-10T16:28:59.735Z,18.75
2018-09-10T16:31:28.036Z,18.76
2018-09-10T16:33:56.429Z,18.67
2018-09-10T16:36:24.740Z,18.67
2018-09-10T16:38:53.006Z,18.71
2018-09-10T16:41:21.309Z,18.89
2018-09-10T16:43:49.590Z,18.65
2018-09-10T16:46:17.890Z,18.55
2018-09-10T16:48:46.402Z,18.55
2018-09-10T16:51:14.709Z,18.60
2018-09-10T16:53:42.982Z,18.47
2018-09-10T16:56:11.354Z,18.73
2018-09-10T16:58:39.718Z,18.83
2018-09-10T17:01:08.038Z,18.63
2018-09-10T17:03:36.298Z,18.55
2018-09-10T17:06:04.641Z,18.59
2018-09-10T17:08:32.910Z,18.57
2018-09-10T17:11:01.213Z,18.65
2018-09-10T17:13:29.493Z,18.68
2018-09-10T17:15:57.805Z,18.66
2018-09-10T17:18:26.087Z,18.63
2018-09-10T17:20:54.393Z,18.71
2018-09-10T17:23:23.741Z,18.69
2018-09-10T17:28:45.113Z,18.76
2018-09-10T17:31:13.571Z,18.72
2018-09-10T17:33:41.901Z,18.59
2018-09-10T17:36:10.201Z,18.56
2018-09-10T17:38:38.504Z,18.44
2018-09-10T17:41:06.801Z,18.43
2018-09-10T17:43:35.102Z,18.53
2018-09-10T17:46:04.579Z,18.52
2018-09-10T17:48:32.845Z,18.49
2018-09-10T17:51:01.779Z,18.39
2018-09-10T17:53:30.160Z,18.28
2018-09-10T17:55:58.432Z,18.33
2018-09-10T17:58:26.739Z,18.38
2018-09-10T18:00:55.111Z,18.44
2018-09-10T18:03:23.452Z,18.24
2018-09-10T18:05:51.737Z,18.28
2018-09-10T18:08:20.045Z,18.10
2018-09-10T18:10:48.471Z,18.16
2018-09-10T18:13:16.891Z,18.18
2018-09-10T18:15:45.341Z,18.15
2018-09-10T18:18:13.934Z,17.98
2018-09-10T18:20:43.505Z,18.01
2018-09-10T18:23:12.072Z,18.11
2018-09-10T18:25:40.975Z,17.95
2018-09-10T18:28:09.644Z,18.02
2018-09-10T18:30:38.358Z,18.02
2018-09-10T18:33:07.441Z,17.93
2018-09-10T18:35:37.168Z,17.95
2018-09-10T18:38:05.941Z,17.91
2018-09-10T18:40:34.521Z,17.90
2018-09-10T18:43:03.188Z,17.89
2018-09-10T18:45:31.765Z,17.70
2018-09-10T18:48:00.310Z,17.67
2018-09-10T18:50:28.931Z,17.78
2018-09-10T18:52:57.422Z,17.75
2018-09-10T18:55:25.973Z,17.77
2018-09-10T18:57:54.439Z,17.70
2018-09-10T19:00:22.914Z,17.65
2018-09-10T19:02:51.213Z,17.56
2018-09-10T19:05:19.532Z,17.50
2018-09-10T19:07:47.889Z,17.49
2018-09-10T19:10:16.215Z,17.59
2018-09-10T19:12:44.489Z,17.54
2018-09-10T19:15:12.785Z,17.53
2018-09-10T19:17:41.045Z,17.51
2018-09-10T19:20:09.574Z,17.40
2018-09-10T19:22:37.931Z,17.39
2018-09-10T19:25:07.855Z,17.36
2018-09-10T19:27:37.189Z,17.44
2018-09-10T19:30:06.170Z,17.23
2018-09-10T19:32:34.534Z,17.18
2018-09-10T19:35:02.794Z,17.07
2018-09-10T19:37:31.089Z,17.15
2018-09-10T19:39:59.346Z,17.17
2018-09-10T19:42:27.686Z,17.19
2018-09-10T19:44:55.950Z,17.06
2018-09-10T19:47:24.325Z,17.17
2018-09-10T19:49:52.600Z,17.19
2018-09-10T19:52:20.897Z,17.25
2018-09-10T19:54:49.161Z,17.21
2018-09-10T19:57:17.462Z,17.16
2018-09-10T19:59:45.733Z,17.21
2018-09-10T20:02:15.017Z,17.20
2018-09-10T20:04:43.318Z,17.13
2018-09-10T20:07:11.604Z,17.09
2018-09-10T20:09:39.932Z,17.12
2018-09-10T20:12:08.163Z,17.06
2018-09-10T20:14:36.449Z,17.07
2018-09-10T20:17:04.788Z,16.85
2018-09-10T20:19:33.065Z,16.82
2018-09-10T20:22:01.391Z,16.74
2018-09-10T20:24:29.635Z,16.74
2018-09-10T20:26:57.928Z,16.66
2018-09-10T20:29:27.362Z,16.54
2018-09-10T20:31:55.664Z,16.66
2018-09-10T20:34:24.088Z,16.61
2018-09-10T20:36:52.480Z,16.56
2018-09-10T20:39:20.754Z,16.51
2018-09-10T20:41:49.008Z,16.56
2018-09-10T20:44:17.282Z,16.56
2018-09-10T20:46:45.537Z,16.53
2018-09-10T20:49:13.821Z,16.50
2018-09-10T20:51:42.108Z,16.48
2018-09-10T20:54:10.411Z,16.51
2018-09-10T20:56:38.662Z,16.51
2018-09-10T20:59:06.909Z,16.50
2018-09-10T21:01:35.198Z,16.45
2018-09-10T21:04:03.492Z,16.40
2018-09-10T21:06:32.237Z,16.43
2018-09-10T21:09:00.489Z,16.37
2018-09-10T21:11:28.781Z,16.22
2018-09-10T21:13:57.052Z,16.23
2018-09-10T21:16:25.334Z,16.18
2018-09-10T21:18:53.578Z,16.18
2018-09-10T21:21:21.837Z,16.21
2018-09-10T21:23:50.122Z,16.31
2018-09-10T21:26:18.398Z,16.36
2018-09-10T21:28:46.665Z,16.15
2018-09-10T21:31:14.962Z,16.28
2018-09-10T21:33:43.281Z,16.27
2018-09-10T21:36:11.553Z,16.36
2018-09-10T21:38:39.845Z,16.36
2018-09-10T21:41:08.373Z,16.41
2018-09-10T21:43:36.750Z,16.58
2018-09-10T21:46:05.233Z,16.61
2018-09-10T21:48:33.476Z,16.58
2018-09-10T21:51:01.743Z,16.62
2018-09-10T21:53:32.422Z,16.62
2018-09-10T21:56:00.688Z,16.71
2018-09-10T21:58:29.012Z,16.81
2018-09-10T22:00:58.188Z,16.68
2018-09-10T22:03:26.796Z,16.68
2018-09-10T22:05:55.529Z,16.68
2018-09-10T22:08:24.371Z,16.68
2018-09-10T22:10:52.929Z,16.69
2018-09-10T22:13:21.229Z,16.78
2018-09-10T22:15:49.488Z,16.73
2018-09-10T22:18:17.805Z,16.72
2018-09-10T22:20:46.103Z,16.79
2018-09-10T22:23:14.377Z,16.64
2018-09-10T22:25:42.669Z,16.95
2018-09-10T22:28:11.069Z,16.78
2018-09-10T22:30:39.329Z,16.65
2018-09-10T22:33:08.112Z,16.64
2018-09-10T22:35:36.392Z,16.44
2018-09-10T22:38:04.689Z,16.50
2018-09-10T22:40:33.092Z,16.47
2018-09-10T22:43:01.365Z,16.57
2018-09-10T22:45:29.682Z,16.65
2018-09-10T22:47:58.005Z,16.66
2018-09-10T22:50:26.545Z,16.53
2018-09-10T22:52:54.798Z,16.51
2018-09-10T22:55:23.091Z,16.43
2018-09-10T22:57:51.350Z,16.36
2018-09-10T23:00:19.781Z,16.46
2018-09-10T23:02:48.090Z,16.45
2018-09-10T23:05:16.409Z,16.50
2018-09-10T23:07:44.666Z,16.48
2018-09-10T23:10:12.945Z,16.57
2018-09-10T23:12:41.209Z,16.41
2018-09-10T23:15:09.793Z,16.54
2018-09-10T23:17:39.117Z,16.54
2018-09-10T23:20:07.766Z,16.61
2018-09-10T23:22:36.065Z,16.70
2018-09-10T23:25:04.382Z,16.60
2018-09-10T23:27:32.748Z,16.67
2018-09-10T23:30:02.321Z,16.68
2018-09-10T23:32:30.572Z,16.69
2018-09-10T23:34:58.845Z,16.74
2018-09-10T23:37:27.097Z,16.81
2018-09-10T23:39:55.400Z,16.89
2018-09-10T23:42:23.658Z,16.91
2018-09-10T23:44:52.019Z,16.77
2018-09-10T23:47:20.264Z,16.74
2018-09-10T23:49:48.765Z,16.72
2018-09-10T23:52:17.036Z,16.76
2018-09-10T23:54:45.294Z,16.66
2018-09-10T23:57:13.592Z,16.52
2018-09-10T23:59:41.833Z,16.46
